createdAt,value
2018-06-01T00:00:30.527Z,13.87
2018-06-01T00:02:59.150Z,14.77
2018-06-01T00:05:27.088Z,12.47
2018-06-01T00:07:55.725Z,13.20
2018-06-01T00:10:23.562Z,13.00
2018-06-01T00:12:51.439Z,12.93
2018-06-01T00:15:19.303Z,11.53
2018-06-01T00:17:47.185Z,12.67
2018-06-01T00:20:15.056Z,12.70
2018-06-01T00:22:42.918Z,12.97
2018-06-01T00:25:10.821Z,12.03
2018-06-01T00:27:38.660Z,12.40
2018-06-01T00:30:06.538Z,11.73
2018-06-01T00:32:34.406Z,12.30
2018-06-01T00:35:02.234Z,13.23
2018-06-01T00:37:30.086Z,12.23
2018-06-01T00:39:57.973Z,12.57
2018-06-01T00:42:25.832Z,12.50
2018-06-01T00:44:53.682Z,13.37
2018-06-01T00:47:21.544Z,12.30
2018-06-01T00:49:50.154Z,12.13
2018-06-01T00:52:18.000Z,11.70
2018-06-01T00:54:57.765Z,11.90
2018-06-01T00:57:25.644Z,12.40
2018-06-01T00:59:53.501Z,11.50
2018-06-01T01:02:21.347Z,12.37
2018-06-01T01:04:49.209Z,11.70
2018-06-01T01:07:17.058Z,12.07
2018-06-01T01:09:45.685Z,11.67
2018-06-01T01:12:13.550Z,13.47
2018-06-01T01:14:41.436Z,12.40
2018-06-01T01:17:09.537Z,12.40
2018-06-01T01:19:37.374Z,12.50
2018-06-01T01:22:05.255Z,12.17
2018-06-01T01:24:33.083Z,12.90
2018-06-01T01:27:00.941Z,11.80
2018-06-01T01:29:28.809Z,13.43
2018-06-01T01:31:56.667Z,11.97
2018-06-01T01:34:24.514Z,12.80
2018-06-01T01:36:53.165Z,11.17
2018-06-01T01:39:21.070Z,12.73
2018-06-01T01:41:49.700Z,13.07
2018-06-01T01:44:17.569Z,11.40
2018-06-01T01:46:45.452Z,13.33
2018-06-01T01:49:13.298Z,13.70
2018-06-01T01:51:41.179Z,12.80
2018-06-01T01:54:09.063Z,12.97
2018-06-01T01:56:37.026Z,11.50
2018-06-01T01:59:04.906Z,11.80
2018-06-01T02:01:32.801Z,11.33
2018-06-01T02:04:00.717Z,12.63
2018-06-01T02:06:28.590Z,13.13
2018-06-01T02:08:56.446Z,12.63
2018-06-01T02:11:24.315Z,11.83
2018-06-01T02:13:52.172Z,11.93
2018-06-01T02:16:20.055Z,10.80
2018-06-01T02:18:47.916Z,12.10
2018-06-01T02:21:15.791Z,10.47
2018-06-01T02:23:43.643Z,11.33
2018-06-01T02:26:11.478Z,13.70
2018-06-01T02:28:39.375Z,14.07
2018-06-01T02:31:07.257Z,12.30
2018-06-01T02:33:35.132Z,11.50
2018-06-01T02:36:02.974Z,11.90
2018-06-01T02:38:31.638Z,11.40
2018-06-01T02:40:59.512Z,10.77
2018-06-01T02:43:27.375Z,11.50
2018-06-01T02:45:55.221Z,12.13
2018-06-01T02:48:23.106Z,12.80
2018-06-01T02:50:50.966Z,12.53
2018-06-01T02:53:18.878Z,12.33
2018-06-01T02:55:46.740Z,11.57
2018-06-01T02:58:14.595Z,12.13
2018-06-01T03:00:42.506Z,11.97
2018-06-01T03:03:11.121Z,13.53
2018-06-01T03:05:39.025Z,11.63
2018-06-01T03:08:06.898Z,13.03
2018-06-01T03:10:34.775Z,12.37
2018-06-01T03:13:02.626Z,11.67
2018-06-01T03:15:30.501Z,11.53
2018-06-01T03:17:58.362Z,12.17
2018-06-01T03:20:26.257Z,13.40
2018-06-01T03:22:54.874Z,12.13
2018-06-01T03:25:22.723Z,13.00
2018-06-01T03:27:50.583Z,13.50
2018-06-01T03:30:19.204Z,12.20
2018-06-01T03:32:47.060Z,12.50
2018-06-01T03:35:14.942Z,12.70
2018-06-01T03:37:42.771Z,13.30
2018-06-01T03:40:10.702Z,13.20
2018-06-01T03:42:38.692Z,14.07
2018-06-01T03:45:07.310Z,13.90
2018-06-01T03:47:35.139Z,14.80
2018-06-01T03:50:03.916Z,14.90
2018-06-01T03:52:31.886Z,12.70
2018-06-01T03:54:59.758Z,14.23
2018-06-01T03:57:28.403Z,13.83
2018-06-01T03:59:56.293Z,13.93
2018-06-01T04:02:24.154Z,15.17
2018-06-01T04:04:52.002Z,14.87
2018-06-01T04:07:19.842Z,14.17
2018-06-01T04:09:47.707Z,13.30
2018-06-01T04:12:16.515Z,15.20
2018-06-01T04:14:44.386Z,14.50
2018-06-01T04:17:12.255Z,14.43
2018-06-01T04:19:40.102Z,14.57
2018-06-01T04:22:07.965Z,15.33
2018-06-01T04:24:35.822Z,14.83
2018-06-01T04:27:03.716Z,16.83
2018-06-01T04:29:31.681Z,14.87
2018-06-01T04:31:59.525Z,15.73
2018-06-01T04:34:27.385Z,15.20
2018-06-01T04:36:55.253Z,15.40
2018-06-01T04:39:23.127Z,14.17
2018-06-01T04:41:50.996Z,14.87
2018-06-01T04:44:18.829Z,14.93
2018-06-01T04:46:46.721Z,15.90
2018-06-01T04:49:14.561Z,16.00
2018-06-01T04:51:43.215Z,15.90
2018-06-01T04:54:11.115Z,15.23
2018-06-01T04:56:39.717Z,15.23
2018-06-01T04:59:08.308Z,14.93
2018-06-01T05:01:36.150Z,14.63
2018-06-01T05:04:04.021Z,16.13
2018-06-01T05:06:32.668Z,18.73
2018-06-01T05:09:00.568Z,17.30
2018-06-01T05:11:28.520Z,15.53
2018-06-01T05:13:56.362Z,16.60
2018-06-01T05:16:24.269Z,17.53
2018-06-01T05:18:52.152Z,15.47
2018-06-01T05:21:20.787Z,14.60
2018-06-01T05:23:48.657Z,15.20
2018-06-01T05:26:16.531Z,14.07
2018-06-01T05:28:44.464Z,16.53
2018-06-01T05:31:12.324Z,13.40
2018-06-01T05:33:40.192Z,16.10
2018-06-01T05:36:08.063Z,13.67
2018-06-01T05:38:35.893Z,14.90
2018-06-01T05:41:04.515Z,13.43
2018-06-01T05:43:32.386Z,13.40
2018-06-01T05:46:00.252Z,13.10
2018-06-01T05:48:28.176Z,13.23
2018-06-01T05:50:56.806Z,10.87
2018-06-01T05:53:24.743Z,11.50
2018-06-01T05:55:53.399Z,11.87
2018-06-01T05:58:21.286Z,10.60
2018-06-01T06:00:49.893Z,11.07
2018-06-01T06:03:17.774Z,9.87
2018-06-01T06:05:45.673Z,10.47
2018-06-01T06:08:13.543Z,10.57
2018-06-01T06:10:41.460Z,11.17
2018-06-01T06:13:09.336Z,10.77
2018-06-01T06:15:37.214Z,10.80
2018-06-01T06:18:05.531Z,10.20
2018-06-01T06:20:33.443Z,11.43
2018-06-01T06:23:01.293Z,9.27
2018-06-01T06:25:29.922Z,10.50
2018-06-01T06:27:57.844Z,9.70
2018-06-01T06:30:25.779Z,9.17
2018-06-01T06:32:53.609Z,10.60
2018-06-01T06:35:21.477Z,9.17
2018-06-01T06:37:49.319Z,8.90
2018-06-01T06:40:17.199Z,7.53
2018-06-01T06:42:45.053Z,8.27
2018-06-01T06:45:12.917Z,7.30
2018-06-01T06:47:40.782Z,7.53
2018-06-01T06:50:08.620Z,7.37
2018-06-01T06:52:36.489Z,7.83
2018-06-01T06:55:04.424Z,8.60
2018-06-01T06:57:32.297Z,6.20
2018-06-01T07:00:00.158Z,7.80
2018-06-01T07:02:28.044Z,8.37
2018-06-01T07:04:55.945Z,7.33
2018-06-01T07:07:24.568Z,6.53
2018-06-01T07:09:52.418Z,7.83
2018-06-01T07:12:20.283Z,7.40
2018-06-01T07:14:48.114Z,6.97
2018-06-01T07:17:16.748Z,7.80
2018-06-01T07:19:44.639Z,7.00
2018-06-01T07:22:13.292Z,7.73
2018-06-01T07:24:41.199Z,9.10
2018-06-01T07:27:09.047Z,7.43
2018-06-01T07:29:36.889Z,6.90
2018-06-01T07:32:04.749Z,7.93
2018-06-01T07:34:32.623Z,8.07
2018-06-01T07:37:00.479Z,8.10
2018-06-01T07:39:28.340Z,8.40
2018-06-01T07:41:56.186Z,8.17
2018-06-01T07:44:24.816Z,9.03
2018-06-01T07:46:52.673Z,7.30
2018-06-01T07:49:20.531Z,8.80
2018-06-01T07:51:48.385Z,7.80
2018-06-01T07:54:16.254Z,8.83
2018-06-01T07:56:44.119Z,9.43
2018-06-01T07:59:11.984Z,8.57
2018-06-01T08:01:39.853Z,10.20
2018-06-01T08:04:07.727Z,8.70
2018-06-01T08:06:35.625Z,8.50
2018-06-01T08:09:03.607Z,7.90
2018-06-01T08:11:31.482Z,8.07
2018-06-01T08:13:59.347Z,6.70
2018-06-01T08:16:27.225Z,7.37
2018-06-01T08:18:55.084Z,7.00
2018-06-01T08:21:22.913Z,8.00
2018-06-01T08:23:50.785Z,5.93
2018-06-01T08:26:18.655Z,6.90
2018-06-01T08:28:46.508Z,6.80
2018-06-01T08:31:14.338Z,6.10
2018-06-01T08:33:42.975Z,6.60
2018-06-01T08:36:10.819Z,6.17
2018-06-01T08:38:38.684Z,6.07
2018-06-01T08:41:06.613Z,5.27
2018-06-01T08:43:35.287Z,6.07
2018-06-01T08:46:03.156Z,5.70
2018-06-01T08:48:31.022Z,6.43
2018-06-01T08:50:58.846Z,6.40
2018-06-01T08:53:26.686Z,7.00
2018-06-01T08:55:54.565Z,5.73
2018-06-01T08:58:22.428Z,6.57
2018-06-01T09:00:50.302Z,6.43
2018-06-01T09:03:18.177Z,6.67
2018-06-01T09:05:46.041Z,5.53
2018-06-01T09:08:13.905Z,5.77
2018-06-01T09:10:41.753Z,5.80
2018-06-01T09:13:09.616Z,6.27
2018-06-01T09:15:38.218Z,5.70
2018-06-01T09:18:06.061Z,5.57
2018-06-01T09:20:33.921Z,6.07
2018-06-01T09:23:02.551Z,5.90
2018-06-01T09:25:30.390Z,5.13
2018-06-01T09:27:58.214Z,5.60
2018-06-01T09:30:26.047Z,6.10
2018-06-01T09:32:53.903Z,6.53
2018-06-01T09:35:21.787Z,6.00
2018-06-01T09:37:49.655Z,6.30
2018-06-01T09:40:17.519Z,5.77
2018-06-01T09:42:45.371Z,7.10
2018-06-01T09:45:13.245Z,6.13
2018-06-01T09:47:41.083Z,6.90
2018-06-01T09:50:08.975Z,6.13
2018-06-01T09:52:36.789Z,6.10
2018-06-01T09:55:04.687Z,5.80
2018-06-01T09:57:32.573Z,6.50
2018-06-01T10:00:00.458Z,6.03
2018-06-01T10:02:28.336Z,5.80
2018-06-01T10:04:56.227Z,6.43
2018-06-01T10:07:24.841Z,6.40
2018-06-01T10:09:58.239Z,6.63
2018-06-01T10:12:26.073Z,7.00
2018-06-01T10:14:54.692Z,6.30
2018-06-01T10:17:22.973Z,5.83
2018-06-01T10:19:50.815Z,5.87
2018-06-01T10:22:18.719Z,6.50
2018-06-01T10:24:46.569Z,5.50
2018-06-01T10:27:14.408Z,5.53
2018-06-01T10:29:43.034Z,6.33
2018-06-01T10:32:10.897Z,6.40
2018-06-01T10:34:38.747Z,6.53
2018-06-01T10:37:06.595Z,6.50
2018-06-01T10:39:35.255Z,6.97
2018-06-01T10:42:03.127Z,6.57
2018-06-01T10:44:31.009Z,6.37
2018-06-01T10:46:59.652Z,6.00
2018-06-01T10:49:27.497Z,6.53
2018-06-01T10:51:55.424Z,6.50
2018-06-01T10:54:24.077Z,6.10
2018-06-01T10:56:51.976Z,5.93
2018-06-01T10:59:20.597Z,5.60
2018-06-01T11:01:48.457Z,5.67
2018-06-01T11:04:16.281Z,6.50
2018-06-01T11:06:44.158Z,6.00
2018-06-01T11:09:12.812Z,5.43
2018-06-01T11:11:40.675Z,5.80
2018-06-01T11:14:08.544Z,5.50
2018-06-01T11:16:36.411Z,5.90
2018-06-01T11:19:04.302Z,5.67
2018-06-01T11:21:33.015Z,5.23
2018-06-01T11:24:00.878Z,6.30
2018-06-01T11:26:28.780Z,6.93
2018-06-01T11:28:56.676Z,6.90
2018-06-01T11:31:24.548Z,6.13
2018-06-01T11:33:52.416Z,6.73
2018-06-01T11:36:20.253Z,5.60
2018-06-01T11:38:48.104Z,8.37
2018-06-01T11:41:15.961Z,5.57
2018-06-01T11:43:43.805Z,6.23
2018-06-01T11:46:12.482Z,7.20
2018-06-01T11:48:40.345Z,6.43
2018-06-01T11:51:08.961Z,6.20
2018-06-01T11:53:36.808Z,6.50
2018-06-01T11:56:04.661Z,5.50
2018-06-01T11:58:33.271Z,5.53
2018-06-01T12:01:01.124Z,6.30
2018-06-01T12:03:29.718Z,5.90
2018-06-01T12:05:57.614Z,6.27
2018-06-01T12:08:25.449Z,5.83
2018-06-01T12:10:53.340Z,5.40
2018-06-01T12:13:21.201Z,6.00
2018-06-01T12:15:49.082Z,5.73
2018-06-01T12:18:16.921Z,5.77
2018-06-01T12:20:44.754Z,5.60
2018-06-01T12:23:12.674Z,6.20
2018-06-01T12:25:40.529Z,5.83
2018-06-01T12:28:08.385Z,6.60
2018-06-01T12:30:36.238Z,6.20
2018-06-01T12:33:04.866Z,6.10
2018-06-01T12:35:33.489Z,6.40
2018-06-01T12:38:02.104Z,6.53
2018-06-01T12:40:29.966Z,5.60
2018-06-01T12:42:57.824Z,6.40
2018-06-01T12:45:25.710Z,6.37
2018-06-01T12:47:53.584Z,6.10
2018-06-01T12:50:21.424Z,6.67
2018-06-01T12:52:50.132Z,6.60
2018-06-01T12:55:17.978Z,6.17
2018-06-01T12:57:45.840Z,6.80
2018-06-01T13:00:14.490Z,6.33
2018-06-01T13:02:42.372Z,6.40
2018-06-01T13:05:10.267Z,5.80
2018-06-01T13:07:38.153Z,6.43
2018-06-01T13:10:06.018Z,6.73
2018-06-01T13:12:33.924Z,6.77
2018-06-01T13:15:01.809Z,6.47
2018-06-01T13:17:29.704Z,6.33
2018-06-01T13:19:58.540Z,6.77
2018-06-01T13:22:26.406Z,6.40
2018-06-01T13:24:54.312Z,7.57
2018-06-01T13:27:22.909Z,7.73
2018-06-01T13:29:50.767Z,7.17
2018-06-01T13:32:19.400Z,7.30
2018-06-01T13:34:47.251Z,7.10
2018-06-01T13:37:15.118Z,7.40
2018-06-01T13:39:42.982Z,6.87
2018-06-01T13:42:10.846Z,7.10
2018-06-01T13:44:38.744Z,6.60
2018-06-01T13:47:06.612Z,9.10
2018-06-01T13:49:34.508Z,6.83
2018-06-01T13:52:03.163Z,6.97
2018-06-01T13:54:31.032Z,7.30
2018-06-01T13:56:58.918Z,6.47
2018-06-01T13:59:26.789Z,5.60
2018-06-01T14:01:54.616Z,6.97
2018-06-01T14:04:22.520Z,7.30
2018-06-01T14:06:50.380Z,7.47
2018-06-01T14:09:18.284Z,6.63
2018-06-01T14:11:46.188Z,8.50
2018-06-01T14:14:14.081Z,6.63
2018-06-01T14:16:41.966Z,7.10
2018-06-01T14:19:10.632Z,7.30
2018-06-01T14:21:38.495Z,6.17
2018-06-01T14:24:06.370Z,7.10
2018-06-01T14:26:34.269Z,6.40
2018-06-01T14:29:02.190Z,7.10
2018-06-01T14:31:30.039Z,6.57
2018-06-01T14:33:58.699Z,6.20
2018-06-01T14:36:26.576Z,7.80
2018-06-01T14:38:54.399Z,7.90
2018-06-01T14:41:23.027Z,6.30
2018-06-01T14:43:50.878Z,6.23
2018-06-01T14:46:18.764Z,6.90
2018-06-01T14:48:46.614Z,8.00
2018-06-01T14:51:14.473Z,6.60
2018-06-01T14:53:42.353Z,7.57
2018-06-01T14:56:10.220Z,6.63
2018-06-01T14:58:38.094Z,6.90
2018-06-01T15:01:05.952Z,7.57
2018-06-01T15:03:33.842Z,7.30
2018-06-01T15:06:01.709Z,7.70
2018-06-01T15:08:29.612Z,6.10
2018-06-01T15:10:58.214Z,6.80
2018-06-01T15:13:26.991Z,7.43
2018-06-01T15:15:55.608Z,6.80
2018-06-01T15:18:23.494Z,7.40
2018-06-01T15:20:51.351Z,6.43
2018-06-01T15:23:19.217Z,6.83
2018-06-01T15:25:47.132Z,6.87
2018-06-01T15:28:14.984Z,6.73
2018-06-01T15:30:42.833Z,8.00
2018-06-01T15:33:10.709Z,6.87
2018-06-01T15:35:38.579Z,7.60
2018-06-01T15:38:06.435Z,7.10
2018-06-01T15:40:34.324Z,7.50
2018-06-01T15:43:02.215Z,6.60
2018-06-01T15:45:30.860Z,6.03
2018-06-01T15:47:58.717Z,7.83
2018-06-01T15:50:26.851Z,6.90
2018-06-01T15:52:54.699Z,7.00
2018-06-01T15:55:23.357Z,6.43
2018-06-01T15:57:51.230Z,7.40
2018-06-01T16:00:19.135Z,8.07
2018-06-01T16:02:46.999Z,6.37
2018-06-01T16:05:14.860Z,7.27
2018-06-01T16:07:43.489Z,8.50
2018-06-01T16:10:11.474Z,7.17
2018-06-01T16:12:39.395Z,7.10
2018-06-01T16:15:07.294Z,7.27
2018-06-01T16:17:35.172Z,6.90
2018-06-01T16:20:03.053Z,7.13
2018-06-01T16:22:30.918Z,6.63
2018-06-01T16:24:58.783Z,7.70
2018-06-01T16:27:26.643Z,6.40
2018-06-01T16:29:54.500Z,7.00
2018-06-01T16:32:22.347Z,6.97
2018-06-01T16:34:50.241Z,6.53
2018-06-01T16:37:18.088Z,7.27
2018-06-01T16:39:46.000Z,7.50
2018-06-01T16:42:14.625Z,8.37
2018-06-01T16:44:42.465Z,7.83
2018-06-01T16:47:11.111Z,7.17
2018-06-01T16:49:38.977Z,8.20
2018-06-01T16:52:06.886Z,8.10
2018-06-01T16:54:34.735Z,7.17
2018-06-01T16:57:03.373Z,6.63
2018-06-01T16:59:31.214Z,7.23
2018-06-01T17:01:59.062Z,7.00
2018-06-01T17:04:27.669Z,6.43
2018-06-01T17:06:55.544Z,7.67
2018-06-01T17:09:23.429Z,7.13
2018-06-01T17:11:51.285Z,7.40
2018-06-01T17:14:19.144Z,7.40
2018-06-01T17:16:47.025Z,7.63
2018-06-01T17:19:16.819Z,7.47
2018-06-01T17:21:44.679Z,7.33
2018-06-01T17:24:12.539Z,7.83
2018-06-01T17:26:40.425Z,7.57
2018-06-01T17:29:08.261Z,7.63
2018-06-01T17:31:36.876Z,7.83
2018-06-01T17:34:04.773Z,8.17
2018-06-01T17:36:32.681Z,10.83
2018-06-01T17:39:00.554Z,6.53
2018-06-01T17:41:28.425Z,7.00
2018-06-01T17:43:56.305Z,7.70
2018-06-01T17:46:24.159Z,7.60
2018-06-01T17:48:52.015Z,7.93
2018-06-01T17:51:19.865Z,7.30
2018-06-01T17:53:48.498Z,7.50
2018-06-01T17:56:16.359Z,8.67
2018-06-01T17:58:44.223Z,7.30
2018-06-01T18:01:12.097Z,8.57
2018-06-01T18:03:39.933Z,7.20
2018-06-01T18:06:07.817Z,7.33
2018-06-01T18:08:35.685Z,7.43
2018-06-01T18:11:03.570Z,6.83
2018-06-01T18:13:31.403Z,7.27
2018-06-01T18:15:59.244Z,6.73
2018-06-01T18:18:27.874Z,7.40
2018-06-01T18:20:55.760Z,6.60
2018-06-01T18:23:23.687Z,6.60
2018-06-01T18:25:51.593Z,8.43
2018-06-01T18:28:19.458Z,6.30
2018-06-01T18:30:47.322Z,6.60
2018-06-01T18:33:15.163Z,7.37
2018-06-01T18:35:43.006Z,7.77
2018-06-01T18:38:11.630Z,8.27
2018-06-01T18:40:39.505Z,7.60
2018-06-01T18:43:07.359Z,7.30
2018-06-01T18:45:35.206Z,7.10
2018-06-01T18:48:03.043Z,6.60
2018-06-01T18:50:30.946Z,7.43
2018-06-01T18:52:58.825Z,7.00
2018-06-01T18:55:26.681Z,7.37
2018-06-01T18:57:54.552Z,7.20
2018-06-01T19:00:22.406Z,7.00
2018-06-01T19:02:50.274Z,7.53
2018-06-01T19:05:18.159Z,7.50
2018-06-01T19:07:45.993Z,6.63
2018-06-01T19:10:14.624Z,7.30
2018-06-01T19:12:42.485Z,7.20
2018-06-01T19:15:10.367Z,7.00
2018-06-01T19:17:38.231Z,7.10
2018-06-01T19:20:06.108Z,8.23
2018-06-01T19:22:34.018Z,7.00
2018-06-01T19:25:01.892Z,7.50
2018-06-01T19:27:29.757Z,7.60
2018-06-01T19:29:57.613Z,7.50
2018-06-01T19:32:26.269Z,8.00
2018-06-01T19:34:54.197Z,7.17
2018-06-01T19:37:22.055Z,6.20
2018-06-01T19:39:49.938Z,7.17
2018-06-01T19:42:17.823Z,5.97
2018-06-01T19:44:45.716Z,6.80
2018-06-01T19:47:14.342Z,6.90
2018-06-01T19:49:42.229Z,7.23
2018-06-01T19:52:10.100Z,6.73
2018-06-01T19:54:37.988Z,6.10
2018-06-01T19:57:05.859Z,7.20
2018-06-01T19:59:33.886Z,6.03
2018-06-01T20:02:01.711Z,5.37
2018-06-01T20:04:30.383Z,6.10
2018-06-01T20:06:58.269Z,5.20
2018-06-01T20:09:26.895Z,6.43
2018-06-01T20:11:54.768Z,6.23
2018-06-01T20:14:22.621Z,6.63
2018-06-01T20:16:50.490Z,6.40
2018-06-01T20:19:18.351Z,6.07
2018-06-01T20:21:46.193Z,6.50
2018-06-01T20:24:14.046Z,6.37
2018-06-01T20:26:42.643Z,6.40
2018-06-01T20:29:10.543Z,7.53
2018-06-01T20:31:38.415Z,6.50
2018-06-01T20:34:06.287Z,6.33
2018-06-01T20:36:34.138Z,6.50
2018-06-01T20:39:01.982Z,7.37
2018-06-01T20:41:29.849Z,6.20
2018-06-01T20:43:57.684Z,8.00
2018-06-01T20:46:25.564Z,7.47
2018-06-01T20:48:54.187Z,7.40
2018-06-01T20:51:22.078Z,5.73
2018-06-01T20:53:49.943Z,6.40
2018-06-01T20:56:17.914Z,6.10
2018-06-01T20:58:45.810Z,7.20
2018-06-01T21:01:14.429Z,7.07
2018-06-01T21:03:42.269Z,5.80
2018-06-01T21:06:10.928Z,6.30
2018-06-01T21:08:38.820Z,7.93
2018-06-01T21:11:07.510Z,7.10
2018-06-01T21:13:36.163Z,6.70
2018-06-01T21:16:04.060Z,7.57
2018-06-01T21:18:32.686Z,7.30
2018-06-01T21:21:00.536Z,6.60
2018-06-01T21:23:28.409Z,6.60
2018-06-01T21:25:56.262Z,7.70
2018-06-01T21:28:24.146Z,7.03
2018-06-01T21:30:51.996Z,7.10
2018-06-01T21:33:19.829Z,7.63
2018-06-01T21:35:47.662Z,7.30
2018-06-01T21:38:15.539Z,7.23
2018-06-01T21:40:43.411Z,7.53
2018-06-01T21:43:11.266Z,6.70
2018-06-01T21:45:39.121Z,7.27
2018-06-01T21:48:06.994Z,7.67
2018-06-01T21:50:34.883Z,6.50
2018-06-01T21:53:02.752Z,7.27
2018-06-01T21:55:30.614Z,7.70
2018-06-01T21:57:58.455Z,8.30
2018-06-01T22:00:26.311Z,6.70
2018-06-01T22:02:54.158Z,7.37
2018-06-01T22:05:22.050Z,7.50
2018-06-01T22:07:49.920Z,7.73
2018-06-01T22:10:17.794Z,7.27
2018-06-01T22:12:45.652Z,7.27
2018-06-01T22:15:13.499Z,7.63
2018-06-01T22:17:41.361Z,8.17
2018-06-01T22:20:09.231Z,7.70
2018-06-01T22:22:37.162Z,6.93
2018-06-01T22:25:05.846Z,7.57
2018-06-01T22:27:33.690Z,7.73
2018-06-01T22:30:01.556Z,7.50
2018-06-01T22:32:29.397Z,7.83
2018-06-01T22:34:57.272Z,7.87
2018-06-01T22:37:25.112Z,7.80
2018-06-01T22:39:52.961Z,8.90
2018-06-01T22:42:21.612Z,8.20
2018-06-01T22:44:49.509Z,7.90
2018-06-01T22:47:18.135Z,7.40
2018-06-01T22:49:46.007Z,7.77
2018-06-01T22:52:13.854Z,8.70
2018-06-01T22:54:41.726Z,6.90
2018-06-01T22:57:09.600Z,8.53
2018-06-01T22:59:37.461Z,7.67
2018-06-01T23:02:05.384Z,8.30
2018-06-01T23:04:34.002Z,8.97
2018-06-01T23:07:01.896Z,9.00
2018-06-01T23:09:29.745Z,8.50
2018-06-01T23:11:57.621Z,7.93
2018-06-01T23:14:25.489Z,8.37
2018-06-01T23:16:53.355Z,8.13
2018-06-01T23:19:21.192Z,7.93
2018-06-01T23:21:49.867Z,8.27
2018-06-01T23:24:18.486Z,8.17
2018-06-01T23:26:46.353Z,8.90
2018-06-01T23:29:14.215Z,8.43
2018-06-01T23:31:42.090Z,8.20
2018-06-01T23:34:09.959Z,7.70
2018-06-01T23:36:37.813Z,8.70
2018-06-01T23:39:05.713Z,7.80
2018-06-01T23:41:33.568Z,9.07
2018-06-01T23:44:01.467Z,8.43
2018-06-01T23:46:30.101Z,8.57
2018-06-01T23:48:57.994Z,8.50
2018-06-01T23:51:25.832Z,9.47
2018-06-01T23:53:53.683Z,7.40
2018-06-01T23:56:21.548Z,7.70
2018-06-01T23:58:49.407Z,8.73
